sensor_id;sensor_type;location;lat;lon;timestamp;temperature;humidity
27314;DHT22;14800;48.174;9.798;2023-03-23T00:00:43;11.50;63.70
27314;DHT22;14800;48.174;9.798;2023-03-23T00:03:09;11.50;63.80
27314;DHT22;14800;48.174;9.798;2023-03-23T00:05:35;11.50;63.90
27314;DHT22;14800;48.174;9.798;2023-03-23T00:08:02;11.50;64.00
27314;DHT22;14800;48.174;9.798;2023-03-23T00:10:29;11.60;63.80
27314;DHT22;14800;48.174;9.798;2023-03-23T00:12:58;11.60;63.80
27314;DHT22;14800;48.174;9.798;2023-03-23T00:15:28;11.60;63.70
27314;DHT22;14800;48.174;9.798;2023-03-23T00:17:59;11.60;63.60
27314;DHT22;14800;48.174;9.798;2023-03-23T00:20:31;11.60;63.60
27314;DHT22;14800;48.174;9.798;2023-03-23T00:23:06;11.60;63.70
27314;DHT22;14800;48.174;9.798;2023-03-23T00:25:32;11.60;63.60
27314;DHT22;14800;48.174;9.798;2023-03-23T00:27:58;11.60;63.80
27314;DHT22;14800;48.174;9.798;2023-03-23T00:30:23;11.60;63.90
27314;DHT22;14800;48.174;9.798;2023-03-23T00:32:49;11.60;64.10
27314;DHT22;14800;48.174;9.798;2023-03-23T00:35:16;11.60;64.00
27314;DHT22;14800;48.174;9.798;2023-03-23T00:37:43;11.60;64.10
27314;DHT22;14800;48.174;9.798;2023-03-23T00:40:10;11.70;64.20
27314;DHT22;14800;48.174;9.798;2023-03-23T00:42:36;11.70;64.10
27314;DHT22;14800;48.174;9.798;2023-03-23T00:45:02;11.70;64.10
27314;DHT22;14800;48.174;9.798;2023-03-23T00:47:29;11.70;63.80
27314;DHT22;14800;48.174;9.798;2023-03-23T00:49:55;11.80;63.80
27314;DHT22;14800;48.174;9.798;2023-03-23T00:52:21;11.80;63.50
27314;DHT22;14800;48.174;9.798;2023-03-23T00:54:47;11.70;63.40
27314;DHT22;14800;48.174;9.798;2023-03-23T00:57:12;11.80;63.40
27314;DHT22;14800;48.174;9.798;2023-03-23T00:59:38;11.80;63.70
27314;DHT22;14800;48.174;9.798;2023-03-23T01:02:04;11.80;63.20
27314;DHT22;14800;48.174;9.798;2023-03-23T01:04:29;11.70;63.10
27314;DHT22;14800;48.174;9.798;2023-03-23T01:06:57;11.80;63.20
27314;DHT22;14800;48.174;9.798;2023-03-23T01:09:23;11.80;63.30
27314;DHT22;14800;48.174;9.798;2023-03-23T01:11:50;11.80;63.40
27314;DHT22;14800;48.174;9.798;2023-03-23T01:14:18;11.80;63.40
27314;DHT22;14800;48.174;9.798;2023-03-23T01:16:44;11.80;63.40
27314;DHT22;14800;48.174;9.798;2023-03-23T01:19:10;11.80;63.40
27314;DHT22;14800;48.174;9.798;2023-03-23T01:21:36;11.80;63.60
27314;DHT22;14800;48.174;9.798;2023-03-23T01:24:02;11.80;63.70
27314;DHT22;14800;48.174;9.798;2023-03-23T01:26:28;11.80;63.80
27314;DHT22;14800;48.174;9.798;2023-03-23T01:28:54;11.80;63.80
27314;DHT22;14800;48.174;9.798;2023-03-23T01:31:22;11.80;63.80
27314;DHT22;14800;48.174;9.798;2023-03-23T01:33:49;11.90;64.00
27314;DHT22;14800;48.174;9.798;2023-03-23T01:36:20;11.90;63.90
27314;DHT22;14800;48.174;9.798;2023-03-23T01:38:48;11.90;63.80
27314;DHT22;14800;48.174;9.798;2023-03-23T01:41:15;11.90;63.70
27314;DHT22;14800;48.174;9.798;2023-03-23T01:46:28;11.90;64.80
27314;DHT22;14800;48.174;9.798;2023-03-23T01:48:56;11.90;64.10
27314;DHT22;14800;48.174;9.798;2023-03-23T01:51:23;11.90;64.20
27314;DHT22;14800;48.174;9.798;2023-03-23T01:53:58;11.90;64.30
27314;DHT22;14800;48.174;9.798;2023-03-23T01:56:29;11.90;64.60
27314;DHT22;14800;48.174;9.798;2023-03-23T01:58:58;11.90;64.40
27314;DHT22;14800;48.174;9.798;2023-03-23T02:01:24;11.90;64.50
27314;DHT22;14800;48.174;9.798;2023-03-23T02:03:54;11.90;64.50
27314;DHT22;14800;48.174;9.798;2023-03-23T02:06:21;12.00;64.50
27314;DHT22;14800;48.174;9.798;2023-03-23T02:08:49;12.00;64.30
27314;DHT22;14800;48.174;9.798;2023-03-23T02:11:17;12.10;64.50
27314;DHT22;14800;48.174;9.798;2023-03-23T02:13:44;12.00;64.40
27314;DHT22;14800;48.174;9.798;2023-03-23T02:19:16;12.10;64.80
27314;DHT22;14800;48.174;9.798;2023-03-23T02:24:56;12.10;66.00
27314;DHT22;14800;48.174;9.798;2023-03-23T02:35:52;12.10;64.60
27314;DHT22;14800;48.174;9.798;2023-03-23T02:38:30;12.10;64.70
27314;DHT22;14800;48.174;9.798;2023-03-23T02:40:59;12.20;64.60
27314;DHT22;14800;48.174;9.798;2023-03-23T02:43:28;12.20;64.50
27314;DHT22;14800;48.174;9.798;2023-03-23T02:45:56;12.20;64.50
27314;DHT22;14800;48.174;9.798;2023-03-23T02:48:27;12.20;64.40
27314;DHT22;14800;48.174;9.798;2023-03-23T02:50:53;12.30;64.50
27314;DHT22;14800;48.174;9.798;2023-03-23T02:53:23;12.30;64.40
27314;DHT22;14800;48.174;9.798;2023-03-23T02:55:51;12.30;64.50
27314;DHT22;14800;48.174;9.798;2023-03-23T02:58:19;12.30;64.50
27314;DHT22;14800;48.174;9.798;2023-03-23T03:00:45;12.30;64.50
27314;DHT22;14800;48.174;9.798;2023-03-23T03:03:17;12.30;64.50
27314;DHT22;14800;48.174;9.798;2023-03-23T03:06:02;12.30;64.50
27314;DHT22;14800;48.174;9.798;2023-03-23T03:08:44;12.40;64.80
27314;DHT22;14800;48.174;9.798;2023-03-23T03:11:16;12.40;64.50
27314;DHT22;14800;48.174;9.798;2023-03-23T03:13:58;12.40;64.60
27314;DHT22;14800;48.174;9.798;2023-03-23T03:21:31;12.60;64.90
27314;DHT22;14800;48.174;9.798;2023-03-23T03:24:01;12.70;64.80
27314;DHT22;14800;48.174;9.798;2023-03-23T03:26:30;12.70;64.50
27314;DHT22;14800;48.174;9.798;2023-03-23T03:28:58;12.70;64.60
27314;DHT22;14800;48.174;9.798;2023-03-23T03:31:31;12.70;64.50
27314;DHT22;14800;48.174;9.798;2023-03-23T03:33:58;12.80;64.60
27314;DHT22;14800;48.174;9.798;2023-03-23T03:36:29;12.80;64.50
27314;DHT22;14800;48.174;9.798;2023-03-23T03:39:04;12.80;64.60
27314;DHT22;14800;48.174;9.798;2023-03-23T03:41:31;12.80;64.70
27314;DHT22;14800;48.174;9.798;2023-03-23T03:43:56;12.80;64.60
27314;DHT22;14800;48.174;9.798;2023-03-23T03:46:22;12.80;64.50
27314;DHT22;14800;48.174;9.798;2023-03-23T03:48:52;12.80;64.60
27314;DHT22;14800;48.174;9.798;2023-03-23T03:51:17;12.80;64.60
27314;DHT22;14800;48.174;9.798;2023-03-23T03:53:43;12.80;64.80
27314;DHT22;14800;48.174;9.798;2023-03-23T03:56:09;12.90;64.90
27314;DHT22;14800;48.174;9.798;2023-03-23T03:58:34;12.90;64.80
27314;DHT22;14800;48.174;9.798;2023-03-23T04:01:02;12.90;64.80
27314;DHT22;14800;48.174;9.798;2023-03-23T04:03:28;12.80;64.80
27314;DHT22;14800;48.174;9.798;2023-03-23T04:05:54;12.80;64.60
27314;DHT22;14800;48.174;9.798;2023-03-23T04:08:22;12.80;64.60
27314;DHT22;14800;48.174;9.798;2023-03-23T04:10:48;12.80;64.70
27314;DHT22;14800;48.174;9.798;2023-03-23T04:13:14;12.80;64.70
27314;DHT22;14800;48.174;9.798;2023-03-23T04:15:39;12.80;64.80
27314;DHT22;14800;48.174;9.798;2023-03-23T04:18:05;12.80;64.80
27314;DHT22;14800;48.174;9.798;2023-03-23T04:20:31;12.80;64.60
27314;DHT22;14800;48.174;9.798;2023-03-23T04:22:57;12.80;64.50
27314;DHT22;14800;48.174;9.798;2023-03-23T04:25:23;12.80;64.60
27314;DHT22;14800;48.174;9.798;2023-03-23T04:27:50;12.90;64.50
27314;DHT22;14800;48.174;9.798;2023-03-23T04:30:23;12.90;64.50
27314;DHT22;14800;48.174;9.798;2023-03-23T04:32:51;12.90;64.60
27314;DHT22;14800;48.174;9.798;2023-03-23T04:35:18;12.90;64.30
27314;DHT22;14800;48.174;9.798;2023-03-23T04:37:45;13.00;64.20
27314;DHT22;14800;48.174;9.798;2023-03-23T04:40:12;13.00;64.00
27314;DHT22;14800;48.174;9.798;2023-03-23T04:42:41;13.00;63.80
27314;DHT22;14800;48.174;9.798;2023-03-23T04:45:07;13.10;63.80
27314;DHT22;14800;48.174;9.798;2023-03-23T04:47:35;13.10;63.60
27314;DHT22;14800;48.174;9.798;2023-03-23T04:50:06;13.20;63.50
27314;DHT22;14800;48.174;9.798;2023-03-23T04:52:33;13.20;63.30
27314;DHT22;14800;48.174;9.798;2023-03-23T04:54:59;13.30;63.30
27314;DHT22;14800;48.174;9.798;2023-03-23T04:57:24;13.30;63.10
27314;DHT22;14800;48.174;9.798;2023-03-23T04:59:53;13.40;63.00
27314;DHT22;14800;48.174;9.798;2023-03-23T05:02:18;13.40;62.80
27314;DHT22;14800;48.174;9.798;2023-03-23T05:04:44;13.50;62.70
27314;DHT22;14800;48.174;9.798;2023-03-23T05:07:11;13.50;62.60
27314;DHT22;14800;48.174;9.798;2023-03-23T05:09:36;13.60;62.50
27314;DHT22;14800;48.174;9.798;2023-03-23T05:12:06;13.60;62.40
27314;DHT22;14800;48.174;9.798;2023-03-23T05:14:32;13.60;62.10
27314;DHT22;14800;48.174;9.798;2023-03-23T05:16:58;13.70;62.10
27314;DHT22;14800;48.174;9.798;2023-03-23T05:19:23;13.70;62.00
27314;DHT22;14800;48.174;9.798;2023-03-23T05:21:49;13.70;61.90
27314;DHT22;14800;48.174;9.798;2023-03-23T05:24:15;13.80;61.90
27314;DHT22;14800;48.174;9.798;2023-03-23T05:26:40;13.80;61.70
27314;DHT22;14800;48.174;9.798;2023-03-23T05:29:06;13.80;61.60
27314;DHT22;14800;48.174;9.798;2023-03-23T05:31:31;13.80;61.50
27314;DHT22;14800;48.174;9.798;2023-03-23T05:33:57;13.90;61.30
27314;DHT22;14800;48.174;9.798;2023-03-23T05:36:23;13.90;61.20
27314;DHT22;14800;48.174;9.798;2023-03-23T05:38:52;13.90;61.10
27314;DHT22;14800;48.174;9.798;2023-03-23T05:41:18;13.90;61.00
27314;DHT22;14800;48.174;9.798;2023-03-23T05:43:44;13.90;60.80
27314;DHT22;14800;48.174;9.798;2023-03-23T05:46:09;13.90;60.80
27314;DHT22;14800;48.174;9.798;2023-03-23T05:48:35;13.90;60.60
27314;DHT22;14800;48.174;9.798;2023-03-23T05:51:02;14.00;60.60
27314;DHT22;14800;48.174;9.798;2023-03-23T05:53:27;14.00;60.50
27314;DHT22;14800;48.174;9.798;2023-03-23T05:55:58;14.00;60.50
27314;DHT22;14800;48.174;9.798;2023-03-23T05:58:24;14.00;60.30
27314;DHT22;14800;48.174;9.798;2023-03-23T06:00:50;14.10;60.30
27314;DHT22;14800;48.174;9.798;2023-03-23T06:03:15;14.10;60.10
27314;DHT22;14800;48.174;9.798;2023-03-23T06:05:44;14.10;60.00
27314;DHT22;14800;48.174;9.798;2023-03-23T06:08:10;14.10;59.90
27314;DHT22;14800;48.174;9.798;2023-03-23T06:10:36;14.10;59.80
27314;DHT22;14800;48.174;9.798;2023-03-23T06:13:03;14.10;59.80
27314;DHT22;14800;48.174;9.798;2023-03-23T06:15:29;14.10;59.70
27314;DHT22;14800;48.174;9.798;2023-03-23T06:18:03;14.20;59.70
27314;DHT22;14800;48.174;9.798;2023-03-23T06:20:30;14.20;59.70
27314;DHT22;14800;48.174;9.798;2023-03-23T06:22:56;14.20;59.70
27314;DHT22;14800;48.174;9.798;2023-03-23T06:25:22;14.20;59.50
27314;DHT22;14800;48.174;9.798;2023-03-23T06:27:49;14.20;59.40
27314;DHT22;14800;48.174;9.798;2023-03-23T06:30:14;14.20;59.30
27314;DHT22;14800;48.174;9.798;2023-03-23T06:32:41;14.20;59.30
27314;DHT22;14800;48.174;9.798;2023-03-23T06:35:07;14.20;59.20
27314;DHT22;14800;48.174;9.798;2023-03-23T06:37:35;14.20;59.20
27314;DHT22;14800;48.174;9.798;2023-03-23T06:40:02;14.30;59.20
27314;DHT22;14800;48.174;9.798;2023-03-23T06:42:29;14.30;59.20
27314;DHT22;14800;48.174;9.798;2023-03-23T06:44:55;14.30;59.20
27314;DHT22;14800;48.174;9.798;2023-03-23T06:47:26;14.30;59.20
27314;DHT22;14800;48.174;9.798;2023-03-23T06:49:52;14.30;59.10
27314;DHT22;14800;48.174;9.798;2023-03-23T06:52:17;14.40;59.10
27314;DHT22;14800;48.174;9.798;2023-03-23T06:54:43;14.40;59.10
27314;DHT22;14800;48.174;9.798;2023-03-23T06:57:09;14.40;59.10
27314;DHT22;14800;48.174;9.798;2023-03-23T06:59:35;14.40;59.00
27314;DHT22;14800;48.174;9.798;2023-03-23T07:02:00;14.50;59.10
27314;DHT22;14800;48.174;9.798;2023-03-23T07:04:26;14.50;59.00
27314;DHT22;14800;48.174;9.798;2023-03-23T07:06:52;14.50;59.00
27314;DHT22;14800;48.174;9.798;2023-03-23T07:09:18;14.60;59.10
27314;DHT22;14800;48.174;9.798;2023-03-23T07:11:43;14.60;59.00
27314;DHT22;14800;48.174;9.798;2023-03-23T07:14:09;14.70;59.00
27314;DHT22;14800;48.174;9.798;2023-03-23T07:16:35;14.70;58.90
27314;DHT22;14800;48.174;9.798;2023-03-23T07:19:01;14.70;58.90
27314;DHT22;14800;48.174;9.798;2023-03-23T07:21:26;14.80;58.90
27314;DHT22;14800;48.174;9.798;2023-03-23T07:23:52;14.80;58.90
27314;DHT22;14800;48.174;9.798;2023-03-23T07:26:18;14.80;58.80
27314;DHT22;14800;48.174;9.798;2023-03-23T07:28:44;14.90;58.80
27314;DHT22;14800;48.174;9.798;2023-03-23T07:31:11;14.90;58.70
27314;DHT22;14800;48.174;9.798;2023-03-23T07:33:36;15.00;58.70
27314;DHT22;14800;48.174;9.798;2023-03-23T07:36:03;15.00;58.70
27314;DHT22;14800;48.174;9.798;2023-03-23T07:38:29;15.00;58.60
27314;DHT22;14800;48.174;9.798;2023-03-23T07:40:55;15.10;58.70
27314;DHT22;14800;48.174;9.798;2023-03-23T07:43:21;15.10;58.50
27314;DHT22;14800;48.174;9.798;2023-03-23T07:45:48;15.20;58.50
27314;DHT22;14800;48.174;9.798;2023-03-23T07:48:13;15.30;58.50
27314;DHT22;14800;48.174;9.798;2023-03-23T07:50:39;15.30;58.50
27314;DHT22;14800;48.174;9.798;2023-03-23T07:53:05;15.40;58.50
27314;DHT22;14800;48.174;9.798;2023-03-23T07:55:31;15.40;58.40
27314;DHT22;14800;48.174;9.798;2023-03-23T07:57:57;15.50;58.10
27314;DHT22;14800;48.174;9.798;2023-03-23T08:00:23;15.60;58.10
27314;DHT22;14800;48.174;9.798;2023-03-23T08:02:58;15.60;58.10
27314;DHT22;14800;48.174;9.798;2023-03-23T08:05:25;15.70;58.30
27314;DHT22;14800;48.174;9.798;2023-03-23T08:07:52;15.70;58.40
27314;DHT22;14800;48.174;9.798;2023-03-23T08:10:20;15.80;58.40
27314;DHT22;14800;48.174;9.798;2023-03-23T08:12:54;15.80;58.40
27314;DHT22;14800;48.174;9.798;2023-03-23T08:15:20;15.90;58.30
27314;DHT22;14800;48.174;9.798;2023-03-23T08:17:48;15.90;58.30
27314;DHT22;14800;48.174;9.798;2023-03-23T08:20:14;16.00;58.20
27314;DHT22;14800;48.174;9.798;2023-03-23T08:22:43;16.00;58.30
27314;DHT22;14800;48.174;9.798;2023-03-23T08:25:12;16.00;58.30
27314;DHT22;14800;48.174;9.798;2023-03-23T08:27:38;16.10;58.60
27314;DHT22;14800;48.174;9.798;2023-03-23T08:30:11;16.10;58.50
27314;DHT22;14800;48.174;9.798;2023-03-23T08:32:37;16.20;58.30
27314;DHT22;14800;48.174;9.798;2023-03-23T08:35:03;16.20;58.30
27314;DHT22;14800;48.174;9.798;2023-03-23T08:37:29;16.30;58.00
27314;DHT22;14800;48.174;9.798;2023-03-23T08:39:55;16.30;57.60
27314;DHT22;14800;48.174;9.798;2023-03-23T08:42:24;16.40;57.30
27314;DHT22;14800;48.174;9.798;2023-03-23T08:44:50;16.50;57.00
27314;DHT22;14800;48.174;9.798;2023-03-23T08:47:16;16.50;57.00
27314;DHT22;14800;48.174;9.798;2023-03-23T08:49:43;16.60;56.90
27314;DHT22;14800;48.174;9.798;2023-03-23T08:52:09;16.70;56.80
27314;DHT22;14800;48.174;9.798;2023-03-23T08:54:35;16.80;56.30
27314;DHT22;14800;48.174;9.798;2023-03-23T08:57:01;16.80;56.30
27314;DHT22;14800;48.174;9.798;2023-03-23T08:59:28;16.80;56.00
27314;DHT22;14800;48.174;9.798;2023-03-23T09:01:54;16.90;56.10
27314;DHT22;14800;48.174;9.798;2023-03-23T09:04:20;16.90;56.00
27314;DHT22;14800;48.174;9.798;2023-03-23T09:06:46;17.00;55.60
27314;DHT22;14800;48.174;9.798;2023-03-23T09:09:12;17.00;55.50
27314;DHT22;14800;48.174;9.798;2023-03-23T09:11:38;17.10;55.50
27314;DHT22;14800;48.174;9.798;2023-03-23T09:14:05;17.10;55.20
27314;DHT22;14800;48.174;9.798;2023-03-23T09:16:32;17.10;55.30
27314;DHT22;14800;48.174;9.798;2023-03-23T09:18:58;17.10;55.40
27314;DHT22;14800;48.174;9.798;2023-03-23T09:21:25;17.20;55.60
27314;DHT22;14800;48.174;9.798;2023-03-23T09:23:51;17.20;55.30
27314;DHT22;14800;48.174;9.798;2023-03-23T09:26:18;17.30;55.30
27314;DHT22;14800;48.174;9.798;2023-03-23T09:28:43;17.30;55.40
27314;DHT22;14800;48.174;9.798;2023-03-23T09:31:10;17.40;55.30
27314;DHT22;14800;48.174;9.798;2023-03-23T09:33:36;17.40;55.00
27314;DHT22;14800;48.174;9.798;2023-03-23T09:36:03;17.40;55.00
27314;DHT22;14800;48.174;9.798;2023-03-23T09:38:31;17.50;54.70
27314;DHT22;14800;48.174;9.798;2023-03-23T09:49:34;17.60;54.50
27314;DHT22;14800;48.174;9.798;2023-03-23T09:52:09;17.60;55.00
27314;DHT22;14800;48.174;9.798;2023-03-23T09:54:50;17.60;54.40
27314;DHT22;14800;48.174;9.798;2023-03-23T09:57:47;17.70;54.60
27314;DHT22;14800;48.174;9.798;2023-03-23T10:00:16;17.70;54.20
27314;DHT22;14800;48.174;9.798;2023-03-23T10:05:46;17.80;55.10
27314;DHT22;14800;48.174;9.798;2023-03-23T10:08:19;17.80;54.70
27314;DHT22;14800;48.174;9.798;2023-03-23T10:16:18;17.90;54.10
27314;DHT22;14800;48.174;9.798;2023-03-23T10:18:55;17.90;54.20
27314;DHT22;14800;48.174;9.798;2023-03-23T10:21:23;18.00;53.60
27314;DHT22;14800;48.174;9.798;2023-03-23T10:29:28;18.00;53.50
27314;DHT22;14800;48.174;9.798;2023-03-23T10:32:12;18.00;53.80
27314;DHT22;14800;48.174;9.798;2023-03-23T10:34:47;18.00;54.10
27314;DHT22;14800;48.174;9.798;2023-03-23T10:37:26;18.00;53.70
27314;DHT22;14800;48.174;9.798;2023-03-23T10:39:57;18.10;54.00
27314;DHT22;14800;48.174;9.798;2023-03-23T10:44:52;18.10;54.10
27314;DHT22;14800;48.174;9.798;2023-03-23T10:47:18;18.10;54.10
27314;DHT22;14800;48.174;9.798;2023-03-23T10:49:53;18.10;54.00
27314;DHT22;14800;48.174;9.798;2023-03-23T10:57:31;18.30;54.10
27314;DHT22;14800;48.174;9.798;2023-03-23T11:00:23;18.30;54.00
27314;DHT22;14800;48.174;9.798;2023-03-23T11:03:04;18.40;53.60
27314;DHT22;14800;48.174;9.798;2023-03-23T11:05:40;18.40;53.40
27314;DHT22;14800;48.174;9.798;2023-03-23T11:08:14;18.50;53.70
27314;DHT22;14800;48.174;9.798;2023-03-23T11:10:48;18.50;53.50
27314;DHT22;14800;48.174;9.798;2023-03-23T11:13:16;18.50;53.70
27314;DHT22;14800;48.174;9.798;2023-03-23T11:15:43;18.60;53.60
27314;DHT22;14800;48.174;9.798;2023-03-23T11:18:24;18.60;53.80
27314;DHT22;14800;48.174;9.798;2023-03-23T11:20:56;18.70;54.20
27314;DHT22;14800;48.174;9.798;2023-03-23T11:23:26;18.70;53.30
27314;DHT22;14800;48.174;9.798;2023-03-23T11:28:46;18.80;53.00
27314;DHT22;14800;48.174;9.798;2023-03-23T11:31:13;18.90;53.30
27314;DHT22;14800;48.174;9.798;2023-03-23T11:33:53;18.90;53.30
27314;DHT22;14800;48.174;9.798;2023-03-23T11:36:19;18.90;53.00
27314;DHT22;14800;48.174;9.798;2023-03-23T11:38:45;18.90;53.10
27314;DHT22;14800;48.174;9.798;2023-03-23T11:41:16;19.00;53.10
27314;DHT22;14800;48.174;9.798;2023-03-23T11:43:46;19.00;53.00
27314;DHT22;14800;48.174;9.798;2023-03-23T11:46:43;19.00;52.90
27314;DHT22;14800;48.174;9.798;2023-03-23T11:49:35;19.00;52.60
27314;DHT22;14800;48.174;9.798;2023-03-23T11:52:14;19.00;52.40
27314;DHT22;14800;48.174;9.798;2023-03-23T11:55:00;18.90;52.70
27314;DHT22;14800;48.174;9.798;2023-03-23T11:57:27;19.00;53.00
27314;DHT22;14800;48.174;9.798;2023-03-23T11:59:56;19.00;52.80
27314;DHT22;14800;48.174;9.798;2023-03-23T12:02:48;19.00;52.90
27314;DHT22;14800;48.174;9.798;2023-03-23T12:11:31;19.10;52.90
27314;DHT22;14800;48.174;9.798;2023-03-23T12:14:21;19.10;52.20
27314;DHT22;14800;48.174;9.798;2023-03-23T12:17:06;19.10;52.00
27314;DHT22;14800;48.174;9.798;2023-03-23T12:20:20;19.10;52.40
27314;DHT22;14800;48.174;9.798;2023-03-23T12:25:46;19.20;51.80
27314;DHT22;14800;48.174;9.798;2023-03-23T12:31:06;19.20;51.70
27314;DHT22;14800;48.174;9.798;2023-03-23T12:33:48;19.20;51.50
27314;DHT22;14800;48.174;9.798;2023-03-23T12:39:45;19.20;51.40
27314;DHT22;14800;48.174;9.798;2023-03-23T12:42:23;19.20;51.10
27314;DHT22;14800;48.174;9.798;2023-03-23T12:47:34;19.10;51.50
27314;DHT22;14800;48.174;9.798;2023-03-23T12:50:16;19.10;51.70
27314;DHT22;14800;48.174;9.798;2023-03-23T12:56:04;19.10;51.50
27314;DHT22;14800;48.174;9.798;2023-03-23T12:58:37;19.10;51.10
27314;DHT22;14800;48.174;9.798;2023-03-23T13:01:18;19.20;51.60
27314;DHT22;14800;48.174;9.798;2023-03-23T13:04:01;19.20;51.50
27314;DHT22;14800;48.174;9.798;2023-03-23T13:06:42;19.30;51.60
27314;DHT22;14800;48.174;9.798;2023-03-23T13:11:39;19.30;51.20
27314;DHT22;14800;48.174;9.798;2023-03-23T13:22:58;19.40;50.80
27314;DHT22;14800;48.174;9.798;2023-03-23T13:25:54;19.40;51.00
27314;DHT22;14800;48.174;9.798;2023-03-23T13:28:27;19.40;50.80
27314;DHT22;14800;48.174;9.798;2023-03-23T13:31:03;19.40;51.00
27314;DHT22;14800;48.174;9.798;2023-03-23T13:33:32;19.50;51.20
27314;DHT22;14800;48.174;9.798;2023-03-23T13:36:10;19.50;50.80
27314;DHT22;14800;48.174;9.798;2023-03-23T13:38:36;19.50;50.80
27314;DHT22;14800;48.174;9.798;2023-03-23T13:41:11;19.50;50.80
27314;DHT22;14800;48.174;9.798;2023-03-23T13:43:38;19.40;50.50
27314;DHT22;14800;48.174;9.798;2023-03-23T13:48:50;19.40;50.70
27314;DHT22;14800;48.174;9.798;2023-03-23T13:54:22;19.40;50.80
27314;DHT22;14800;48.174;9.798;2023-03-23T13:57:00;19.40;51.00
27314;DHT22;14800;48.174;9.798;2023-03-23T14:01:57;19.40;50.90
27314;DHT22;14800;48.174;9.798;2023-03-23T14:04:38;19.40;51.70
27314;DHT22;14800;48.174;9.798;2023-03-23T14:07:11;19.30;50.90
27314;DHT22;14800;48.174;9.798;2023-03-23T14:09:40;19.30;50.70
27314;DHT22;14800;48.174;9.798;2023-03-23T14:12:21;19.20;50.80
27314;DHT22;14800;48.174;9.798;2023-03-23T14:14:50;19.20;50.50
27314;DHT22;14800;48.174;9.798;2023-03-23T14:17:23;19.10;50.90
27314;DHT22;14800;48.174;9.798;2023-03-23T14:19:53;19.00;51.10
27314;DHT22;14800;48.174;9.798;2023-03-23T14:24:51;19.00;51.40
27314;DHT22;14800;48.174;9.798;2023-03-23T14:27:18;18.90;51.70
27314;DHT22;14800;48.174;9.798;2023-03-23T14:29:44;18.90;51.90
27314;DHT22;14800;48.174;9.798;2023-03-23T14:32:17;18.90;52.00
27314;DHT22;14800;48.174;9.798;2023-03-23T14:34:47;18.90;52.20
27314;DHT22;14800;48.174;9.798;2023-03-23T14:37:14;18.80;52.30
27314;DHT22;14800;48.174;9.798;2023-03-23T14:39:45;18.80;52.30
27314;DHT22;14800;48.174;9.798;2023-03-23T14:42:14;18.80;52.40
27314;DHT22;14800;48.174;9.798;2023-03-23T14:44:42;18.80;52.60
27314;DHT22;14800;48.174;9.798;2023-03-23T14:47:38;18.70;52.70
27314;DHT22;14800;48.174;9.798;2023-03-23T14:50:18;18.70;52.80
27314;DHT22;14800;48.174;9.798;2023-03-23T14:52:47;18.70;53.00
27314;DHT22;14800;48.174;9.798;2023-03-23T14:55:18;18.70;53.00
27314;DHT22;14800;48.174;9.798;2023-03-23T14:57:45;18.70;53.10
27314;DHT22;14800;48.174;9.798;2023-03-23T15:00:23;18.60;53.00
27314;DHT22;14800;48.174;9.798;2023-03-23T15:02:54;18.60;53.10
27314;DHT22;14800;48.174;9.798;2023-03-23T15:05:29;18.60;53.10
27314;DHT22;14800;48.174;9.798;2023-03-23T15:08:05;18.60;53.20
27314;DHT22;14800;48.174;9.798;2023-03-23T15:10:31;18.60;53.30
27314;DHT22;14800;48.174;9.798;2023-03-23T15:12:57;18.60;53.40
27314;DHT22;14800;48.174;9.798;2023-03-23T15:15:34;18.60;53.20
27314;DHT22;14800;48.174;9.798;2023-03-23T15:18:01;18.60;53.20
27314;DHT22;14800;48.174;9.798;2023-03-23T15:23:15;18.60;53.10
27314;DHT22;14800;48.174;9.798;2023-03-23T15:25:47;18.60;53.00
27314;DHT22;14800;48.174;9.798;2023-03-23T15:28:21;18.50;52.90
27314;DHT22;14800;48.174;9.798;2023-03-23T15:30:53;18.50;52.80
27314;DHT22;14800;48.174;9.798;2023-03-23T15:33:19;18.50;52.90
27314;DHT22;14800;48.174;9.798;2023-03-23T15:35:52;18.50;53.00
27314;DHT22;14800;48.174;9.798;2023-03-23T15:38:33;18.50;53.00
27314;DHT22;14800;48.174;9.798;2023-03-23T15:41:03;18.40;53.10
27314;DHT22;14800;48.174;9.798;2023-03-23T15:43:49;18.40;53.10
27314;DHT22;14800;48.174;9.798;2023-03-23T15:46:21;18.40;53.10
27314;DHT22;14800;48.174;9.798;2023-03-23T15:51:29;18.30;53.10
27314;DHT22;14800;48.174;9.798;2023-03-23T15:53:56;18.30;53.20
27314;DHT22;14800;48.174;9.798;2023-03-23T15:56:22;18.30;53.30
27314;DHT22;14800;48.174;9.798;2023-03-23T15:58:49;18.30;53.30
27314;DHT22;14800;48.174;9.798;2023-03-23T16:01:25;18.30;53.50
27314;DHT22;14800;48.174;9.798;2023-03-23T16:03:54;18.30;53.50
27314;DHT22;14800;48.174;9.798;2023-03-23T16:06:22;18.30;53.60
27314;DHT22;14800;48.174;9.798;2023-03-23T16:08:48;18.20;53.60
27314;DHT22;14800;48.174;9.798;2023-03-23T16:11:15;18.20;53.70
27314;DHT22;14800;48.174;9.798;2023-03-23T16:13:41;18.20;53.70
27314;DHT22;14800;48.174;9.798;2023-03-23T16:16:15;18.20;53.80
27314;DHT22;14800;48.174;9.798;2023-03-23T16:18:41;18.20;53.90
27314;DHT22;14800;48.174;9.798;2023-03-23T16:21:07;18.20;53.90
27314;DHT22;14800;48.174;9.798;2023-03-23T16:23:32;18.20;53.90
27314;DHT22;14800;48.174;9.798;2023-03-23T16:25:58;18.20;54.00
27314;DHT22;14800;48.174;9.798;2023-03-23T16:28:23;18.10;54.00
27314;DHT22;14800;48.174;9.798;2023-03-23T16:30:49;18.20;54.10
27314;DHT22;14800;48.174;9.798;2023-03-23T16:33:15;18.10;54.10
27314;DHT22;14800;48.174;9.798;2023-03-23T16:35:40;18.10;54.00
27314;DHT22;14800;48.174;9.798;2023-03-23T16:38:07;18.10;54.10
27314;DHT22;14800;48.174;9.798;2023-03-23T16:40:32;18.10;54.10
27314;DHT22;14800;48.174;9.798;2023-03-23T16:42:58;18.10;54.00
27314;DHT22;14800;48.174;9.798;2023-03-23T16:45:24;18.10;54.20
27314;DHT22;14800;48.174;9.798;2023-03-23T16:47:51;18.10;54.30
27314;DHT22;14800;48.174;9.798;2023-03-23T16:50:19;18.10;54.30
27314;DHT22;14800;48.174;9.798;2023-03-23T16:52:45;18.00;54.50
27314;DHT22;14800;48.174;9.798;2023-03-23T16:55:13;18.00;54.60
27314;DHT22;14800;48.174;9.798;2023-03-23T16:57:39;18.00;54.70
27314;DHT22;14800;48.174;9.798;2023-03-23T17:00:08;18.00;54.70
27314;DHT22;14800;48.174;9.798;2023-03-23T17:02:35;18.00;54.80
27314;DHT22;14800;48.174;9.798;2023-03-23T17:05:00;17.90;54.70
27314;DHT22;14800;48.174;9.798;2023-03-23T17:07:27;17.90;54.70
27314;DHT22;14800;48.174;9.798;2023-03-23T17:09:52;17.90;54.70
27314;DHT22;14800;48.174;9.798;2023-03-23T17:12:18;17.80;54.70
27314;DHT22;14800;48.174;9.798;2023-03-23T17:14:44;17.80;54.80
27314;DHT22;14800;48.174;9.798;2023-03-23T17:17:09;17.80;54.80
27314;DHT22;14800;48.174;9.798;2023-03-23T17:19:35;17.80;54.90
27314;DHT22;14800;48.174;9.798;2023-03-23T17:22:01;17.80;55.00
27314;DHT22;14800;48.174;9.798;2023-03-23T17:24:26;17.70;55.10
27314;DHT22;14800;48.174;9.798;2023-03-23T17:26:53;17.70;55.10